createdAt,value
2022-11-27T00:01:14.203Z,149.27
2022-11-27T00:03:42.343Z,137.07
2022-11-27T00:06:17.885Z,160.77
2022-11-27T00:08:45.963Z,165.20
2022-11-27T00:11:15.312Z,149.73
2022-11-27T00:13:42.594Z,148.70
2022-11-27T00:16:09.966Z,158.70
2022-11-27T00:18:37.336Z,146.90
2022-11-27T00:21:05.839Z,134.55
2022-11-27T00:23:34.156Z,132.70
2022-11-27T00:26:01.440Z,132.32
2022-11-27T00:28:28.465Z,134.32
2022-11-27T00:31:06.172Z,136.52
2022-11-27T00:33:33.790Z,126.55
2022-11-27T00:36:07.553Z,133.50
2022-11-27T00:38:38.654Z,127.90
2022-11-27T00:41:08.166Z,129.07
2022-11-27T00:43:43.514Z,133.98
2022-11-27T00:46:12.011Z,127.10
2022-11-27T00:48:39.002Z,126.38
2022-11-27T00:51:09.377Z,126.22
2022-11-27T00:53:36.347Z,122.65
2022-11-27T00:56:04.007Z,141.70
2022-11-27T00:58:30.997Z,122.88
2022-11-27T01:01:03.101Z,123.75
2022-11-27T01:03:31.429Z,134.32
2022-11-27T01:06:07.085Z,130.43
2022-11-27T01:08:34.821Z,137.80
2022-11-27T01:11:02.267Z,133.25
2022-11-27T01:13:32.280Z,145.43
2022-11-27T01:16:10.888Z,133.25
2022-11-27T01:18:39.648Z,122.80
2022-11-27T01:21:07.170Z,117.75
2022-11-27T01:23:34.568Z,129.10
2022-11-27T01:26:06.104Z,128.95
2022-11-27T01:28:33.633Z,145.70
2022-11-27T01:31:13.303Z,144.00
2022-11-27T01:33:40.360Z,130.60
2022-11-27T01:36:08.902Z,125.88
2022-11-27T01:38:36.253Z,147.52
2022-11-27T01:41:15.276Z,149.75
2022-11-27T01:44:02.757Z,143.95
2022-11-27T01:46:42.587Z,163.15
2022-11-27T01:49:09.550Z,158.52
2022-11-27T01:51:47.013Z,135.13
2022-11-27T01:54:16.428Z,144.65
2022-11-27T01:56:46.604Z,139.90
2022-11-27T01:59:14.736Z,135.23
2022-11-27T02:01:41.786Z,136.90
2022-11-27T02:04:08.802Z,152.35
2022-11-27T02:06:35.819Z,147.52
2022-11-27T02:09:02.881Z,148.88
2022-11-27T02:11:49.351Z,137.75
2022-11-27T02:14:25.933Z,125.32
2022-11-27T02:17:01.899Z,116.03
2022-11-27T02:19:50.583Z,120.40
2022-11-27T02:22:32.203Z,115.35
2022-11-27T02:25:18.254Z,104.20
2022-11-27T02:27:48.198Z,125.05
2022-11-27T02:30:16.183Z,134.15
2022-11-27T02:33:01.317Z,124.70
2022-11-27T02:35:44.759Z,151.20
2022-11-27T02:41:09.563Z,128.45
2022-11-27T02:43:44.951Z,121.80
2022-11-27T02:46:13.583Z,136.70
2022-11-27T02:48:50.605Z,125.30
2022-11-27T02:51:24.531Z,126.90
2022-11-27T02:53:55.551Z,124.70
2022-11-27T02:56:27.058Z,121.78
2022-11-27T02:58:57.505Z,121.72
2022-11-27T03:01:27.780Z,129.40
2022-11-27T03:03:58.407Z,124.38
2022-11-27T03:06:31.436Z,117.18
2022-11-27T03:09:05.237Z,135.25
2022-11-27T03:11:32.395Z,141.35
2022-11-27T03:14:08.622Z,148.80
2022-11-27T03:17:18.325Z,151.68
2022-11-27T03:20:28.034Z,154.70
2022-11-27T03:22:55.781Z,133.43
2022-11-27T03:25:23.969Z,145.30
2022-11-27T03:28:00.101Z,148.13
2022-11-27T03:30:27.467Z,144.70
2022-11-27T03:32:55.143Z,148.13
2022-11-27T03:35:26.446Z,154.15
2022-11-27T03:37:54.783Z,152.02
2022-11-27T03:40:29.439Z,148.30
2022-11-27T03:43:22.301Z,146.43
2022-11-27T03:46:09.612Z,149.10
2022-11-27T03:48:50.436Z,154.38
2022-11-27T03:51:28.712Z,136.38
2022-11-27T03:54:16.404Z,134.35
2022-11-27T03:56:58.016Z,144.77
2022-11-27T03:59:33.016Z,130.65
2022-11-27T04:02:00.069Z,143.82
2022-11-27T04:04:27.063Z,139.45
2022-11-27T04:06:53.980Z,133.82
2022-11-27T04:09:21.002Z,135.02
2022-11-27T04:11:47.987Z,139.80
2022-11-27T04:14:14.897Z,145.48
2022-11-27T04:16:41.934Z,138.15
2022-11-27T04:19:09.507Z,144.38
2022-11-27T04:21:36.446Z,148.32
2022-11-27T04:24:03.595Z,148.13
2022-11-27T04:26:30.552Z,138.45
2022-11-27T04:28:57.440Z,138.95
2022-11-27T04:31:24.536Z,128.07
2022-11-27T04:33:51.508Z,123.28
2022-11-27T04:36:18.481Z,129.30
2022-11-27T04:38:45.446Z,124.93
2022-11-27T04:41:12.398Z,129.55
2022-11-27T04:43:39.287Z,122.85
2022-11-27T04:46:06.411Z,129.85
2022-11-27T04:48:33.404Z,130.15
2022-11-27T04:51:00.315Z,125.88
2022-11-27T04:53:27.307Z,134.93
2022-11-27T04:55:54.227Z,147.82
2022-11-27T04:58:21.144Z,134.35
2022-11-27T05:00:48.138Z,140.43
2022-11-27T05:03:15.158Z,139.27
2022-11-27T05:05:42.214Z,138.07
2022-11-27T05:08:09.238Z,142.65
2022-11-27T05:10:36.161Z,137.70
2022-11-27T05:13:03.110Z,133.13
2022-11-27T05:15:30.090Z,133.77
2022-11-27T05:17:57.032Z,132.50
2022-11-27T05:20:24.002Z,133.95
2022-11-27T05:22:50.992Z,131.40
2022-11-27T05:25:17.965Z,151.70
2022-11-27T05:27:44.931Z,141.70
2022-11-27T05:30:12.146Z,129.65
2022-11-27T05:32:39.096Z,134.80
2022-11-27T05:35:06.360Z,138.25
2022-11-27T05:37:33.383Z,124.20
2022-11-27T05:40:00.303Z,130.55
2022-11-27T05:42:27.287Z,121.65
2022-11-27T05:44:58.229Z,134.95
2022-11-27T05:47:25.611Z,135.85
2022-11-27T05:49:52.663Z,133.23
2022-11-27T05:52:19.641Z,128.50
2022-11-27T05:54:46.580Z,122.47
2022-11-27T05:57:13.530Z,114.68
2022-11-27T05:59:40.503Z,117.35
2022-11-27T06:02:07.527Z,136.15
2022-11-27T06:04:34.909Z,138.57
2022-11-27T06:07:01.885Z,118.90
2022-11-27T06:09:28.814Z,131.80
2022-11-27T06:11:55.847Z,128.35
2022-11-27T06:14:23.160Z,129.68
2022-11-27T06:16:50.158Z,129.15
2022-11-27T06:19:17.083Z,134.18
2022-11-27T06:21:46.667Z,117.20
2022-11-27T06:24:13.705Z,128.70
2022-11-27T06:26:40.758Z,121.03
2022-11-27T06:29:07.739Z,119.95
2022-11-27T06:31:34.969Z,128.98
2022-11-27T06:34:03.165Z,122.95
2022-11-27T06:36:33.136Z,112.68
2022-11-27T06:39:00.663Z,132.25
2022-11-27T06:41:28.620Z,137.93
2022-11-27T06:43:57.836Z,118.68
2022-11-27T06:46:27.986Z,124.25
2022-11-27T06:48:55.602Z,135.27
2022-11-27T06:51:27.833Z,130.98
2022-11-27T06:53:55.599Z,115.20
2022-11-27T06:56:27.436Z,120.75
2022-11-27T06:58:57.002Z,125.20
2022-11-27T07:01:25.427Z,119.20
2022-11-27T07:03:52.718Z,116.22
2022-11-27T07:06:23.062Z,119.25
2022-11-27T07:08:50.328Z,122.60
2022-11-27T07:11:20.691Z,118.35
2022-11-27T07:13:48.862Z,129.50
2022-11-27T07:16:16.687Z,131.65
2022-11-27T07:18:46.495Z,125.65
2022-11-27T07:21:13.814Z,125.47
2022-11-27T07:23:41.174Z,123.13
2022-11-27T07:26:24.323Z,115.30
2022-11-27T07:28:51.923Z,124.55
2022-11-27T07:31:23.623Z,130.38
2022-11-27T07:33:52.685Z,136.02
2022-11-27T07:36:30.940Z,142.18
2022-11-27T07:38:58.465Z,131.82
2022-11-27T07:41:30.615Z,130.48
2022-11-27T07:44:00.970Z,129.52
2022-11-27T07:46:28.046Z,143.05
2022-11-27T07:48:55.005Z,139.60
2022-11-27T07:51:22.904Z,136.57
2022-11-27T07:53:52.081Z,136.00
2022-11-27T07:56:19.301Z,148.32
2022-11-27T07:58:46.545Z,140.65
2022-11-27T08:01:16.549Z,147.88
2022-11-27T08:03:47.015Z,132.73
2022-11-27T08:06:24.951Z,128.25
2022-11-27T08:08:52.585Z,118.22
2022-11-27T08:11:29.932Z,122.57
2022-11-27T08:13:59.431Z,187.90
2022-11-27T08:16:27.938Z,117.75
2022-11-27T08:18:55.425Z,99.72
2022-11-27T08:21:22.443Z,98.32
2022-11-27T08:23:49.470Z,93.78
2022-11-27T08:26:16.545Z,96.57
2022-11-27T08:28:44.016Z,91.05
2022-11-27T08:31:13.629Z,90.90
2022-11-27T08:33:41.087Z,89.57
2022-11-27T08:36:12.566Z,89.35
2022-11-27T08:38:42.263Z,84.15
2022-11-27T08:41:10.062Z,87.20
2022-11-27T08:43:37.127Z,86.78
2022-11-27T08:46:06.407Z,81.95
2022-11-27T08:48:34.196Z,87.32
2022-11-27T08:51:06.545Z,86.55
2022-11-27T08:53:34.270Z,77.10
2022-11-27T08:56:08.922Z,83.55
2022-11-27T08:58:35.910Z,80.40
2022-11-27T09:01:15.741Z,71.70
2022-11-27T09:03:42.882Z,74.22
2022-11-27T09:06:16.870Z,71.25
2022-11-27T09:08:44.086Z,69.88
2022-11-27T09:11:13.087Z,78.60
2022-11-27T09:13:40.643Z,74.60
2022-11-27T09:16:10.440Z,80.57
2022-11-27T09:18:37.627Z,76.20
2022-11-27T09:21:07.830Z,81.85
2022-11-27T09:23:37.474Z,87.53
2022-11-27T09:26:08.037Z,91.05
2022-11-27T09:28:35.760Z,87.15
2022-11-27T09:31:05.430Z,87.13
2022-11-27T09:33:34.550Z,85.57
2022-11-27T09:36:12.983Z,85.07
2022-11-27T09:38:40.247Z,88.97
2022-11-27T09:41:38.785Z,89.47
2022-11-27T09:44:31.797Z,82.18
2022-11-27T09:47:39.947Z,73.47
2022-11-27T09:50:26.175Z,73.80
2022-11-27T09:53:13.388Z,76.68
2022-11-27T09:55:44.600Z,78.03
2022-11-27T09:58:45.700Z,82.63
2022-11-27T10:01:22.900Z,77.15
2022-11-27T10:03:52.086Z,68.68
2022-11-27T10:06:44.482Z,79.47
2022-11-27T10:09:22.004Z,79.90
2022-11-27T10:12:00.902Z,82.30
2022-11-27T10:14:35.020Z,91.20
2022-11-27T10:17:16.613Z,79.43
2022-11-27T10:20:08.285Z,82.88
2022-11-27T10:22:54.929Z,82.50
2022-11-27T10:25:33.977Z,75.45
2022-11-27T10:28:12.269Z,78.72
2022-11-27T10:30:50.870Z,72.40
2022-11-27T10:33:24.041Z,70.45
2022-11-27T10:35:51.496Z,74.63
2022-11-27T10:38:28.231Z,69.95
2022-11-27T10:40:58.006Z,59.22
2022-11-27T10:43:25.871Z,60.90
2022-11-27T10:46:09.386Z,53.97
2022-11-27T10:48:37.143Z,62.88
2022-11-27T10:51:10.103Z,73.10
2022-11-27T10:56:15.751Z,65.90
2022-11-27T10:58:51.195Z,60.63
2022-11-27T11:01:20.288Z,59.45
2022-11-27T11:03:47.422Z,58.35
2022-11-27T11:06:26.680Z,57.03
2022-11-27T11:09:06.212Z,69.18
2022-11-27T11:11:33.443Z,66.60
2022-11-27T11:14:23.294Z,58.20
2022-11-27T11:16:51.699Z,67.75
2022-11-27T11:19:33.723Z,55.88
2022-11-27T11:22:08.094Z,55.03
2022-11-27T11:24:42.360Z,49.40
2022-11-27T11:27:30.051Z,48.65
2022-11-27T11:30:01.976Z,48.97
2022-11-27T11:32:36.249Z,50.42
2022-11-27T11:35:23.754Z,46.40
2022-11-27T11:37:52.058Z,47.53
2022-11-27T11:40:26.162Z,45.42
2022-11-27T11:42:54.962Z,45.45
2022-11-27T11:45:22.947Z,48.17
2022-11-27T11:47:56.054Z,41.72
2022-11-27T11:50:28.582Z,45.53
2022-11-27T11:53:08.483Z,44.95
2022-11-27T11:55:43.645Z,46.22
2022-11-27T11:58:46.999Z,42.92
2022-11-27T12:01:36.663Z,38.67
2022-11-27T12:04:12.618Z,34.63
2022-11-27T12:07:08.756Z,34.92
2022-11-27T12:09:57.394Z,39.15
2022-11-27T12:12:24.256Z,44.13
2022-11-27T12:15:17.274Z,44.25
2022-11-27T12:18:02.297Z,48.08
2022-11-27T12:21:06.803Z,46.78
2022-11-27T12:23:54.486Z,41.67
2022-11-27T12:26:30.338Z,39.05
2022-11-27T12:29:25.355Z,40.28
2022-11-27T12:32:25.759Z,35.60
2022-11-27T12:35:20.284Z,34.58
2022-11-27T12:38:15.870Z,31.10
2022-11-27T12:40:48.544Z,38.17
2022-11-27T12:43:36.231Z,36.55
2022-11-27T12:46:21.454Z,40.78
2022-11-27T12:48:55.824Z,34.72
2022-11-27T12:51:34.175Z,33.03
2022-11-27T12:54:22.677Z,41.78
2022-11-27T12:56:56.525Z,40.40
2022-11-27T12:59:42.578Z,31.42
2022-11-27T13:02:09.538Z,29.63
2022-11-27T13:05:05.487Z,36.83
2022-11-27T13:08:02.586Z,44.97
2022-11-27T13:10:43.965Z,53.70
2022-11-27T13:13:30.288Z,58.83
2022-11-27T13:16:21.064Z,50.22
2022-11-27T13:18:56.898Z,46.35
2022-11-27T13:21:28.160Z,43.63
2022-11-27T13:23:55.365Z,45.55
2022-11-27T13:26:40.919Z,42.42
2022-11-27T13:29:17.838Z,40.30
2022-11-27T13:31:46.654Z,44.97
2022-11-27T13:34:21.430Z,43.50
2022-11-27T13:37:06.484Z,39.60
2022-11-27T13:39:40.723Z,41.97
2022-11-27T13:42:20.128Z,38.58
2022-11-27T13:44:59.092Z,38.78
2022-11-27T13:47:29.945Z,39.65
2022-11-27T13:50:19.335Z,43.70
2022-11-27T13:53:04.396Z,45.60
2022-11-27T13:55:36.874Z,41.08
2022-11-27T13:58:05.663Z,44.45
2022-11-27T14:00:43.878Z,53.10
2022-11-27T14:03:25.989Z,52.10
2022-11-27T14:05:53.336Z,56.90
2022-11-27T14:08:25.475Z,56.45
2022-11-27T14:10:59.786Z,52.37
2022-11-27T14:13:40.960Z,54.00
2022-11-27T14:16:29.137Z,52.40
2022-11-27T14:19:04.493Z,58.88
2022-11-27T14:21:41.084Z,56.92
2022-11-27T14:24:27.952Z,52.35
2022-11-27T14:26:55.071Z,49.70
2022-11-27T14:29:24.128Z,49.55
2022-11-27T14:32:00.624Z,47.50
2022-11-27T14:34:34.617Z,46.95
2022-11-27T14:37:01.601Z,73.60
2022-11-27T14:39:38.021Z,64.93
2022-11-27T14:42:08.174Z,54.97
2022-11-27T14:44:35.574Z,56.65
2022-11-27T14:47:06.870Z,57.00
2022-11-27T14:49:34.510Z,57.63
2022-11-27T14:52:12.907Z,61.22
2022-11-27T14:54:41.264Z,47.85
2022-11-27T14:57:17.831Z,46.58
2022-11-27T14:59:44.834Z,46.45
2022-11-27T15:02:11.732Z,47.10
2022-11-27T15:04:41.241Z,48.83
2022-11-27T15:07:27.278Z,54.50
2022-11-27T15:09:57.282Z,48.30
2022-11-27T15:12:28.703Z,55.55
2022-11-27T15:15:20.128Z,50.40
2022-11-27T15:17:51.181Z,51.22
2022-11-27T15:20:32.245Z,57.63
2022-11-27T15:23:00.221Z,56.08
2022-11-27T15:25:34.803Z,53.03
2022-11-27T15:28:02.143Z,46.58
2022-11-27T15:30:29.511Z,52.08
2022-11-27T15:32:56.933Z,52.90
2022-11-27T15:35:36.363Z,55.97
2022-11-27T15:38:10.697Z,55.95
2022-11-27T15:40:40.450Z,49.38
2022-11-27T15:43:15.151Z,69.72
2022-11-27T15:45:44.358Z,61.53
2022-11-27T15:48:17.080Z,65.40
2022-11-27T15:50:48.376Z,73.72
2022-11-27T15:53:18.637Z,83.80
2022-11-27T15:55:45.611Z,83.72
2022-11-27T15:58:12.528Z,93.78
2022-11-27T16:00:40.751Z,119.75
2022-11-27T16:03:07.769Z,120.60
2022-11-27T16:05:34.741Z,114.05
2022-11-27T16:08:01.757Z,107.32
2022-11-27T16:10:28.727Z,111.03
2022-11-27T16:12:57.746Z,108.63
2022-11-27T16:15:27.641Z,106.00
2022-11-27T16:17:58.529Z,103.60
2022-11-27T16:20:26.212Z,96.28
2022-11-27T16:22:54.000Z,89.28
2022-11-27T16:25:20.959Z,88.10
2022-11-27T16:27:47.939Z,82.63
2022-11-27T16:30:14.975Z,100.88
2022-11-27T16:32:41.901Z,103.25
2022-11-27T16:35:09.078Z,102.93
2022-11-27T16:37:35.983Z,101.28
2022-11-27T16:40:03.331Z,114.30
2022-11-27T16:42:38.289Z,93.85
2022-11-27T16:45:06.366Z,132.23
2022-11-27T16:47:33.982Z,117.57
2022-11-27T16:50:01.145Z,150.60
2022-11-27T16:52:28.120Z,151.15
2022-11-27T16:54:55.981Z,157.63
2022-11-27T16:57:22.987Z,153.52
2022-11-27T16:59:50.944Z,159.10
2022-11-27T17:02:17.945Z,151.68
2022-11-27T17:04:45.239Z,143.20
2022-11-27T17:07:12.391Z,128.80
2022-11-27T17:09:42.226Z,140.18
2022-11-27T17:12:09.152Z,123.95
2022-11-27T17:14:37.090Z,108.18
2022-11-27T17:17:06.217Z,109.72
2022-11-27T17:19:34.323Z,101.72
2022-11-27T17:22:01.549Z,105.40
2022-11-27T17:24:28.999Z,88.68
2022-11-27T17:26:56.110Z,82.30
2022-11-27T17:29:23.304Z,85.20
2022-11-27T17:31:51.056Z,79.70
2022-11-27T17:34:18.641Z,84.93
2022-11-27T17:36:46.778Z,85.40
2022-11-27T17:39:15.125Z,77.57
2022-11-27T17:41:44.936Z,80.88
2022-11-27T17:44:12.929Z,75.75
2022-11-27T17:46:40.144Z,65.75
2022-11-27T17:49:08.122Z,63.42
2022-11-27T17:51:36.570Z,69.35
2022-11-27T17:54:05.520Z,59.75
2022-11-27T17:56:34.195Z,62.70
2022-11-27T17:59:01.501Z,58.22
2022-11-27T18:01:29.502Z,52.58
2022-11-27T18:04:00.378Z,56.55
2022-11-27T18:06:27.796Z,64.93
2022-11-27T18:08:56.611Z,59.53
2022-11-27T18:11:27.838Z,51.78
2022-11-27T18:13:55.237Z,57.67
2022-11-27T18:16:25.386Z,69.18
2022-11-27T18:18:54.307Z,65.00
2022-11-27T18:21:22.080Z,70.47
2022-11-27T18:24:21.390Z,86.57
2022-11-27T18:27:06.632Z,104.97
2022-11-27T18:29:24.304Z,106.18
2022-11-27T18:31:52.913Z,121.82
2022-11-27T18:34:19.968Z,140.27
2022-11-27T18:36:46.910Z,144.50
2022-11-27T18:39:14.134Z,146.88
2022-11-27T18:41:41.320Z,162.48
2022-11-27T18:44:08.547Z,145.95
2022-11-27T18:46:35.708Z,151.93
2022-11-27T18:49:02.775Z,141.60
2022-11-27T18:51:29.682Z,154.25
2022-11-27T18:53:56.726Z,128.23
2022-11-27T18:56:26.378Z,136.05
2022-11-27T18:58:54.461Z,132.50
2022-11-27T19:01:27.622Z,135.30
2022-11-27T19:03:55.249Z,118.05
2022-11-27T19:06:25.050Z,122.68
2022-11-27T19:08:52.591Z,111.35
2022-11-27T19:11:23.588Z,122.03
2022-11-27T19:13:54.038Z,122.72
2022-11-27T19:16:26.878Z,96.10
2022-11-27T19:18:57.042Z,98.75
2022-11-27T19:21:27.001Z,101.93
2022-11-27T19:23:54.471Z,91.43
2022-11-27T19:26:24.295Z,91.35
2022-11-27T19:28:52.945Z,86.70
2022-11-27T19:31:21.038Z,89.30
2022-11-27T19:33:59.710Z,95.32
2022-11-27T19:36:29.000Z,81.28
2022-11-27T19:38:58.640Z,82.70
2022-11-27T19:41:25.912Z,80.20
2022-11-27T19:43:53.029Z,80.38
2022-11-27T19:46:21.356Z,80.80
2022-11-27T19:48:49.487Z,83.35
2022-11-27T19:51:17.445Z,96.18
2022-11-27T19:53:44.453Z,100.57
2022-11-27T19:56:12.043Z,99.20
2022-11-27T19:58:40.368Z,104.10
2022-11-27T20:01:11.983Z,88.50
2022-11-27T20:03:39.462Z,119.28
2022-11-27T20:06:08.870Z,111.13
2022-11-27T20:08:36.385Z,98.25
2022-11-27T20:11:06.315Z,101.78
2022-11-27T20:13:33.701Z,111.03
2022-11-27T20:16:01.142Z,105.95
2022-11-27T20:18:28.257Z,93.82
2022-11-27T20:21:13.076Z,89.43
2022-11-27T20:23:40.351Z,98.00
2022-11-27T20:26:13.878Z,97.75
2022-11-27T20:28:41.534Z,94.57
2022-11-27T20:31:14.223Z,97.65
2022-11-27T20:33:41.622Z,102.10
2022-11-27T20:36:13.661Z,88.10
2022-11-27T20:38:40.587Z,90.60
2022-11-27T20:41:09.597Z,79.63
2022-11-27T20:43:37.383Z,90.43
2022-11-27T20:46:05.784Z,88.43
2022-11-27T20:48:32.741Z,94.65
2022-11-27T20:51:06.977Z,110.65
2022-11-27T20:53:33.915Z,110.72
2022-11-27T20:56:07.202Z,112.30
2022-11-27T20:58:38.343Z,106.35
2022-11-27T21:01:21.919Z,92.75
2022-11-27T21:03:51.064Z,93.97
2022-11-27T21:06:20.724Z,93.18
2022-11-27T21:08:48.653Z,99.68
2022-11-27T21:11:25.132Z,103.82
2022-11-27T21:14:09.795Z,137.55
2022-11-27T21:16:42.018Z,120.90
2022-11-27T21:19:18.385Z,121.53
2022-11-27T21:21:45.458Z,117.68
2022-11-27T21:24:15.069Z,116.78
2022-11-27T21:26:42.410Z,119.82
2022-11-27T21:29:12.546Z,103.07
2022-11-27T21:31:45.086Z,85.97
2022-11-27T21:34:14.066Z,105.78
2022-11-27T21:36:41.158Z,109.93
2022-11-27T21:39:09.329Z,101.13
2022-11-27T21:41:36.773Z,96.82
2022-11-27T21:44:04.943Z,93.10
2022-11-27T21:46:31.945Z,87.60
2022-11-27T21:49:01.409Z,81.78
2022-11-27T21:51:29.571Z,75.63
2022-11-27T21:53:58.582Z,75.88
2022-11-27T21:56:27.498Z,84.95
2022-11-27T21:58:54.648Z,84.82
2022-11-27T22:01:24.218Z,85.50
2022-11-27T22:03:54.268Z,90.32
2022-11-27T22:06:22.944Z,79.65
2022-11-27T22:08:50.815Z,66.50
2022-11-27T22:11:22.132Z,63.97
2022-11-27T22:13:49.378Z,63.20
2022-11-27T22:16:19.377Z,64.75
2022-11-27T22:18:47.479Z,66.93
2022-11-27T22:21:15.875Z,66.35
2022-11-27T22:23:43.447Z,76.40
2022-11-27T22:26:13.784Z,76.35
2022-11-27T22:28:41.131Z,77.68
2022-11-27T22:31:12.184Z,93.93
2022-11-27T22:33:41.356Z,87.57
2022-11-27T22:36:20.868Z,84.15
2022-11-27T22:38:50.608Z,91.85
2022-11-27T22:41:20.125Z,82.45
2022-11-27T22:43:47.196Z,87.65
2022-11-27T22:46:20.288Z,84.07
2022-11-27T22:51:14.434Z,97.10
2022-11-27T22:53:41.431Z,84.40
2022-11-27T22:56:12.779Z,78.47
2022-11-27T22:58:41.906Z,80.10
2022-11-27T23:01:16.392Z,81.80
2022-11-27T23:03:43.526Z,87.45
2022-11-27T23:06:15.265Z,85.95
2022-11-27T23:08:43.983Z,76.38
2022-11-27T23:11:19.045Z,74.78
2022-11-27T23:13:49.615Z,75.28
2022-11-27T23:16:17.834Z,69.80
2022-11-27T23:18:44.918Z,75.32
2022-11-27T23:21:14.952Z,67.65
2022-11-27T23:23:42.255Z,68.05
2022-11-27T23:26:17.666Z,64.50
2022-11-27T23:28:46.217Z,69.43
2022-11-27T23:31:42.714Z,69.55
2022-11-27T23:34:13.679Z,63.92
2022-11-27T23:36:40.670Z,69.88
2022-11-27T23:39:08.943Z,72.53
2022-11-27T23:41:35.971Z,62.45
2022-11-27T23:44:03.166Z,64.47
2022-11-27T23:46:31.184Z,54.90
2022-11-27T23:48:59.945Z,52.00
2022-11-27T23:51:30.262Z,49.53
2022-11-27T23:53:57.626Z,53.08
2022-11-27T23:56:31.802Z,50.85
2022-11-27T23:58:59.495Z,51.38
